createdAt,value
2018-08-19T00:00:02.425Z,18.1
2018-08-19T00:15:02.701Z,18
2018-08-19T00:30:03.118Z,17.7
2018-08-19T00:45:02.434Z,17.8
2018-08-19T01:00:02.730Z,17.7
2018-08-19T01:15:03.072Z,17.6
2018-08-19T01:30:02.633Z,17.4
2018-08-19T01:45:02.929Z,17.3
2018-08-19T02:00:03.259Z,17.1
2018-08-19T02:15:02.569Z,17
2018-08-19T02:30:03.023Z,16.7
2018-08-19T02:45:02.317Z,16.6
2018-08-19T03:00:02.646Z,16.6
2018-08-19T03:15:03.065Z,16.6
2018-08-19T03:30:02.462Z,16.4
2018-08-19T03:45:02.795Z,16.4
2018-08-19T04:00:03.096Z,16.4
2018-08-19T04:15:02.382Z,16.2
2018-08-19T04:30:02.791Z,15.9
2018-08-19T04:45:03.100Z,16
2018-08-19T05:00:02.400Z,15.9
2018-08-19T05:15:02.759Z,16.2
2018-08-19T05:30:03.184Z,16.7
2018-08-19T05:45:02.518Z,16.9
2018-08-19T06:00:02.830Z,17.5
2018-08-19T06:15:03.108Z,17.8
2018-08-19T06:30:02.727Z,18.4
2018-08-19T06:45:03.051Z,18.6
2018-08-19T07:00:02.596Z,19.2
2018-08-19T07:15:02.975Z,19.4
2018-08-19T07:30:02.401Z,20.2
2018-08-19T07:45:02.728Z,20.6
2018-08-19T08:00:03.030Z,21.4
2018-08-19T08:15:02.329Z,22.4
2018-08-19T08:30:02.746Z,23.9
2018-08-19T08:45:03.239Z,25.6
2018-08-19T09:00:02.578Z,25.8
2018-08-19T09:15:02.922Z,27.2
2018-08-19T09:30:02.304Z,27
2018-08-19T09:45:02.615Z,28.6
2018-08-19T10:00:02.902Z,28.5
2018-08-19T10:15:03.212Z,29.9
2018-08-19T10:30:02.592Z,30.5
2018-08-19T10:45:02.936Z,29.5
2018-08-19T11:00:03.285Z,31.2
2018-08-19T11:15:02.665Z,31.8
2018-08-19T11:30:03.105Z,32
2018-08-19T11:45:02.399Z,31.8
2018-08-19T12:00:02.735Z,32.6
2018-08-19T12:15:03.084Z,33.4
2018-08-19T12:30:02.594Z,33.4
2018-08-19T12:45:02.918Z,32.4
2018-08-19T13:00:03.258Z,32.2
2018-08-19T13:15:02.579Z,33.3
2018-08-19T13:30:03.000Z,32.9
2018-08-19T13:45:02.347Z,33.4
2018-08-19T14:00:02.688Z,34.2
2018-08-19T14:15:03.022Z,31.9
2018-08-19T14:30:02.521Z,31.8
2018-08-19T14:45:02.913Z,32.4
2018-08-19T15:00:03.214Z,31.9
2018-08-19T15:15:02.614Z,31.5
2018-08-19T15:30:03.053Z,30.7
2018-08-19T15:45:02.395Z,30
2018-08-19T16:00:02.712Z,29.9
2018-08-19T16:15:03.024Z,29.2
2018-08-19T16:30:02.431Z,29
2018-08-19T16:45:02.727Z,28.6
2018-08-19T17:00:03.079Z,28.1
2018-08-19T17:15:02.392Z,27.4
2018-08-19T17:30:02.792Z,26.7
2018-08-19T17:45:03.106Z,25.9
2018-08-19T18:00:02.498Z,25.1
2018-08-19T18:15:02.925Z,23.9
2018-08-19T18:30:02.301Z,23.4
2018-08-19T18:45:02.599Z,22.9
2018-08-19T19:00:02.927Z,22.4
2018-08-19T19:15:03.279Z,22.2
2018-08-19T19:30:02.695Z,22.1
2018-08-19T19:45:03.005Z,21.9
2018-08-19T20:00:02.307Z,21.3
2018-08-19T20:15:02.708Z,21.1
2018-08-19T20:30:03.105Z,20.8
2018-08-19T20:45:02.409Z,20.6
2018-08-19T21:00:02.799Z,20.4
2018-08-19T21:15:03.195Z,20.2
2018-08-19T21:30:02.687Z,20.1
2018-08-19T21:45:03.074Z,19.8
2018-08-19T22:00:02.447Z,19.7
2018-08-19T22:15:02.795Z,19.6
2018-08-19T22:30:03.182Z,19.3
2018-08-19T22:45:02.517Z,19.1
2018-08-19T23:00:02.811Z,19.1
2018-08-19T23:15:03.107Z,19
2018-08-19T23:30:02.496Z,18.8
2018-08-19T23:45:02.796Z,18.8
